sensor_id;sensor_type;location;lat;lon;timestamp;P1;durP1;ratioP1;P2;durP2;ratioP2
4616;SDS011;2321;42.704;23.384;2022-09-21T00:01:16;3.37;;;3.10;;
4616;SDS011;2321;42.704;23.384;2022-09-21T00:03:45;2.90;;;2.80;;
4616;SDS011;2321;42.704;23.384;2022-09-21T00:06:13;9.57;;;2.37;;
4616;SDS011;2321;42.704;23.384;2022-09-21T00:08:43;2.77;;;2.57;;
4616;SDS011;2321;42.704;23.384;2022-09-21T00:11:10;2.37;;;2.23;;
4616;SDS011;2321;42.704;23.384;2022-09-21T00:13:38;3.80;;;1.50;;
4616;SDS011;2321;42.704;23.384;2022-09-21T00:16:07;1.60;;;1.60;;
4616;SDS011;2321;42.704;23.384;2022-09-21T00:18:35;1.83;;;1.73;;
4616;SDS011;2321;42.704;23.384;2022-09-21T00:21:05;2.30;;;2.20;;
4616;SDS011;2321;42.704;23.384;2022-09-21T00:23:33;1.77;;;1.77;;
4616;SDS011;2321;42.704;23.384;2022-09-21T00:26:04;1.90;;;1.90;;
4616;SDS011;2321;42.704;23.384;2022-09-21T00:28:32;2.13;;;1.93;;
4616;SDS011;2321;42.704;23.384;2022-09-21T00:31:00;1.40;;;1.40;;
4616;SDS011;2321;42.704;23.384;2022-09-21T00:33:29;1.40;;;1.30;;
4616;SDS011;2321;42.704;23.384;2022-09-21T00:36:00;1.80;;;1.70;;
4616;SDS011;2321;42.704;23.384;2022-09-21T00:38:27;1.70;;;1.60;;
4616;SDS011;2321;42.704;23.384;2022-09-21T00:40:54;2.07;;;1.97;;
4616;SDS011;2321;42.704;23.384;2022-09-21T00:43:21;8.87;;;1.50;;
4616;SDS011;2321;42.704;23.384;2022-09-21T00:45:48;1.70;;;1.60;;
4616;SDS011;2321;42.704;23.384;2022-09-21T00:48:27;1.97;;;1.87;;
4616;SDS011;2321;42.704;23.384;2022-09-21T00:50:55;1.80;;;1.73;;
4616;SDS011;2321;42.704;23.384;2022-09-21T00:53:27;1.63;;;1.60;;
4616;SDS011;2321;42.704;23.384;2022-09-21T00:55:55;4.00;;;1.83;;
4616;SDS011;2321;42.704;23.384;2022-09-21T00:58:25;1.90;;;1.80;;
4616;SDS011;2321;42.704;23.384;2022-09-21T01:00:55;1.80;;;1.70;;
4616;SDS011;2321;42.704;23.384;2022-09-21T01:03:25;3.10;;;2.20;;
4616;SDS011;2321;42.704;23.384;2022-09-21T01:05:55;2.23;;;2.03;;
4616;SDS011;2321;42.704;23.384;2022-09-21T01:08:22;1.50;;;1.50;;
4616;SDS011;2321;42.704;23.384;2022-09-21T01:10:56;1.57;;;1.57;;
4616;SDS011;2321;42.704;23.384;2022-09-21T01:13:38;2.07;;;2.00;;
4616;SDS011;2321;42.704;23.384;2022-09-21T01:16:13;2.13;;;2.03;;
4616;SDS011;2321;42.704;23.384;2022-09-21T01:18:45;2.03;;;1.93;;
4616;SDS011;2321;42.704;23.384;2022-09-21T01:21:19;2.63;;;2.50;;
4616;SDS011;2321;42.704;23.384;2022-09-21T01:29:57;2.80;;;2.60;;
4616;SDS011;2321;42.704;23.384;2022-09-21T01:32:28;2.83;;;1.97;;
4616;SDS011;2321;42.704;23.384;2022-09-21T01:35:03;3.00;;;2.80;;
4616;SDS011;2321;42.704;23.384;2022-09-21T01:37:35;1.97;;;1.87;;
4616;SDS011;2321;42.704;23.384;2022-09-21T01:40:06;2.30;;;2.10;;
4616;SDS011;2321;42.704;23.384;2022-09-21T01:42:36;4.33;;;2.50;;
4616;SDS011;2321;42.704;23.384;2022-09-21T01:45:07;2.10;;;2.00;;
4616;SDS011;2321;42.704;23.384;2022-09-21T01:47:36;1.80;;;1.80;;
4616;SDS011;2321;42.704;23.384;2022-09-21T01:50:06;2.37;;;2.27;;
4616;SDS011;2321;42.704;23.384;2022-09-21T01:52:38;19.00;;;1.80;;
4616;SDS011;2321;42.704;23.384;2022-09-21T01:55:12;1.87;;;1.87;;
4616;SDS011;2321;42.704;23.384;2022-09-21T01:57:44;1.90;;;1.90;;
4616;SDS011;2321;42.704;23.384;2022-09-21T02:00:20;2.20;;;2.10;;
4616;SDS011;2321;42.704;23.384;2022-09-21T02:02:49;2.67;;;2.47;;
4616;SDS011;2321;42.704;23.384;2022-09-21T02:05:20;2.07;;;1.97;;
4616;SDS011;2321;42.704;23.384;2022-09-21T02:07:49;3.87;;;1.70;;
4616;SDS011;2321;42.704;23.384;2022-09-21T02:10:19;2.10;;;2.00;;
4616;SDS011;2321;42.704;23.384;2022-09-21T02:12:51;1.53;;;1.50;;
4616;SDS011;2321;42.704;23.384;2022-09-21T02:15:22;4.13;;;2.67;;
4616;SDS011;2321;42.704;23.384;2022-09-21T02:17:58;1.93;;;1.83;;
4616;SDS011;2321;42.704;23.384;2022-09-21T02:20:33;1.53;;;1.43;;
4616;SDS011;2321;42.704;23.384;2022-09-21T02:23:06;1.43;;;1.43;;
4616;SDS011;2321;42.704;23.384;2022-09-21T02:25:41;1.67;;;1.67;;
4616;SDS011;2321;42.704;23.384;2022-09-21T02:28:15;3.23;;;2.00;;
4616;SDS011;2321;42.704;23.384;2022-09-21T02:30:54;1.43;;;1.33;;
4616;SDS011;2321;42.704;23.384;2022-09-21T02:33:33;1.47;;;1.37;;
4616;SDS011;2321;42.704;23.384;2022-09-21T02:36:09;1.50;;;1.50;;
4616;SDS011;2321;42.704;23.384;2022-09-21T02:38:41;1.10;;;1.10;;
4616;SDS011;2321;42.704;23.384;2022-09-21T02:41:15;1.17;;;1.17;;
4616;SDS011;2321;42.704;23.384;2022-09-21T02:43:46;1.50;;;1.50;;
4616;SDS011;2321;42.704;23.384;2022-09-21T02:46:20;1.90;;;1.80;;
4616;SDS011;2321;42.704;23.384;2022-09-21T02:48:52;1.23;;;1.23;;
4616;SDS011;2321;42.704;23.384;2022-09-21T02:51:24;1.47;;;1.47;;
4616;SDS011;2321;42.704;23.384;2022-09-21T02:53:55;2.10;;;2.00;;
4616;SDS011;2321;42.704;23.384;2022-09-21T02:56:24;2.10;;;2.00;;
4616;SDS011;2321;42.704;23.384;2022-09-21T02:58:53;2.00;;;1.77;;
4616;SDS011;2321;42.704;23.384;2022-09-21T03:01:25;1.80;;;1.80;;
4616;SDS011;2321;42.704;23.384;2022-09-21T03:03:53;1.43;;;1.40;;
4616;SDS011;2321;42.704;23.384;2022-09-21T03:06:20;1.50;;;1.47;;
4616;SDS011;2321;42.704;23.384;2022-09-21T03:08:47;2.23;;;2.03;;
4616;SDS011;2321;42.704;23.384;2022-09-21T03:11:15;1.67;;;1.67;;
4616;SDS011;2321;42.704;23.384;2022-09-21T03:13:42;1.80;;;1.70;;
4616;SDS011;2321;42.704;23.384;2022-09-21T03:16:10;1.37;;;1.33;;
4616;SDS011;2321;42.704;23.384;2022-09-21T03:18:39;1.67;;;1.67;;
4616;SDS011;2321;42.704;23.384;2022-09-21T03:21:07;3.03;;;1.43;;
4616;SDS011;2321;42.704;23.384;2022-09-21T03:23:34;1.40;;;1.40;;
4616;SDS011;2321;42.704;23.384;2022-09-21T03:26:01;1.87;;;1.77;;
4616;SDS011;2321;42.704;23.384;2022-09-21T03:28:28;4.80;;;1.50;;
4616;SDS011;2321;42.704;23.384;2022-09-21T03:30:55;1.00;;;1.00;;
4616;SDS011;2321;42.704;23.384;2022-09-21T03:33:22;1.20;;;1.20;;
4616;SDS011;2321;42.704;23.384;2022-09-21T03:35:51;1.53;;;1.53;;
4616;SDS011;2321;42.704;23.384;2022-09-21T03:38:18;5.30;;;2.50;;
4616;SDS011;2321;42.704;23.384;2022-09-21T03:40:46;1.37;;;1.37;;
4616;SDS011;2321;42.704;23.384;2022-09-21T03:43:14;3.97;;;2.30;;
4616;SDS011;2321;42.704;23.384;2022-09-21T03:45:41;1.50;;;1.50;;
4616;SDS011;2321;42.704;23.384;2022-09-21T03:48:09;1.40;;;1.40;;
4616;SDS011;2321;42.704;23.384;2022-09-21T03:50:37;1.50;;;1.40;;
4616;SDS011;2321;42.704;23.384;2022-09-21T03:53:05;2.00;;;1.90;;
4616;SDS011;2321;42.704;23.384;2022-09-21T03:55:34;2.00;;;1.80;;
4616;SDS011;2321;42.704;23.384;2022-09-21T03:58:01;2.40;;;2.30;;
4616;SDS011;2321;42.704;23.384;2022-09-21T04:00:29;1.60;;;1.60;;
4616;SDS011;2321;42.704;23.384;2022-09-21T04:02:56;1.40;;;1.40;;
4616;SDS011;2321;42.704;23.384;2022-09-21T04:05:23;1.53;;;1.53;;
4616;SDS011;2321;42.704;23.384;2022-09-21T04:07:52;1.83;;;1.83;;
4616;SDS011;2321;42.704;23.384;2022-09-21T04:10:27;1.73;;;1.73;;
4616;SDS011;2321;42.704;23.384;2022-09-21T04:12:57;8.00;;;1.97;;
4616;SDS011;2321;42.704;23.384;2022-09-21T04:15:26;1.73;;;1.60;;
4616;SDS011;2321;42.704;23.384;2022-09-21T04:17:53;2.97;;;2.13;;
4616;SDS011;2321;42.704;23.384;2022-09-21T04:20:21;5.47;;;2.97;;
4616;SDS011;2321;42.704;23.384;2022-09-21T04:22:48;1.97;;;1.97;;
4616;SDS011;2321;42.704;23.384;2022-09-21T04:25:15;2.30;;;2.20;;
4616;SDS011;2321;42.704;23.384;2022-09-21T04:27:44;7.37;;;3.07;;
4616;SDS011;2321;42.704;23.384;2022-09-21T04:30:12;2.70;;;2.60;;
4616;SDS011;2321;42.704;23.384;2022-09-21T04:32:40;4.27;;;3.90;;
4616;SDS011;2321;42.704;23.384;2022-09-21T04:35:07;1.70;;;1.63;;
4616;SDS011;2321;42.704;23.384;2022-09-21T04:37:34;2.37;;;2.20;;
4616;SDS011;2321;42.704;23.384;2022-09-21T04:40:02;2.37;;;2.27;;
4616;SDS011;2321;42.704;23.384;2022-09-21T04:42:29;2.20;;;2.10;;
4616;SDS011;2321;42.704;23.384;2022-09-21T04:44:58;9.83;;;3.67;;
4616;SDS011;2321;42.704;23.384;2022-09-21T04:47:25;2.63;;;2.43;;
4616;SDS011;2321;42.704;23.384;2022-09-21T04:49:52;1.67;;;1.67;;
4616;SDS011;2321;42.704;23.384;2022-09-21T04:52:19;3.60;;;2.60;;
4616;SDS011;2321;42.704;23.384;2022-09-21T04:54:46;2.07;;;2.07;;
4616;SDS011;2321;42.704;23.384;2022-09-21T04:57:13;1.70;;;1.70;;
4616;SDS011;2321;42.704;23.384;2022-09-21T04:59:40;2.03;;;1.93;;
4616;SDS011;2321;42.704;23.384;2022-09-21T05:02:08;2.00;;;1.90;;
4616;SDS011;2321;42.704;23.384;2022-09-21T05:04:36;2.10;;;1.97;;
4616;SDS011;2321;42.704;23.384;2022-09-21T05:07:03;3.60;;;2.10;;
4616;SDS011;2321;42.704;23.384;2022-09-21T05:09:30;3.23;;;2.43;;
4616;SDS011;2321;42.704;23.384;2022-09-21T05:12:14;3.53;;;2.73;;
4616;SDS011;2321;42.704;23.384;2022-09-21T05:14:41;4.00;;;2.47;;
4616;SDS011;2321;42.704;23.384;2022-09-21T05:17:10;3.77;;;3.47;;
4616;SDS011;2321;42.704;23.384;2022-09-21T05:19:37;2.60;;;2.40;;
4616;SDS011;2321;42.704;23.384;2022-09-21T05:22:04;2.80;;;2.60;;
4616;SDS011;2321;42.704;23.384;2022-09-21T05:24:31;12.07;;;3.50;;
4616;SDS011;2321;42.704;23.384;2022-09-21T05:26:58;1.83;;;1.73;;
4616;SDS011;2321;42.704;23.384;2022-09-21T05:29:25;1.90;;;1.80;;
4616;SDS011;2321;42.704;23.384;2022-09-21T05:31:55;3.40;;;3.10;;
4616;SDS011;2321;42.704;23.384;2022-09-21T05:34:34;2.00;;;1.90;;
4616;SDS011;2321;42.704;23.384;2022-09-21T05:37:10;3.90;;;3.07;;
4616;SDS011;2321;42.704;23.384;2022-09-21T05:39:50;1.57;;;1.57;;
4616;SDS011;2321;42.704;23.384;2022-09-21T05:42:17;2.50;;;1.80;;
4616;SDS011;2321;42.704;23.384;2022-09-21T05:44:45;1.60;;;1.60;;
4616;SDS011;2321;42.704;23.384;2022-09-21T05:47:17;2.07;;;1.97;;
4616;SDS011;2321;42.704;23.384;2022-09-21T05:49:52;2.40;;;2.20;;
4616;SDS011;2321;42.704;23.384;2022-09-21T05:52:32;2.73;;;1.83;;
4616;SDS011;2321;42.704;23.384;2022-09-21T05:55:06;2.47;;;2.37;;
4616;SDS011;2321;42.704;23.384;2022-09-21T05:57:45;2.60;;;2.43;;
4616;SDS011;2321;42.704;23.384;2022-09-21T06:00:20;2.07;;;1.97;;
4616;SDS011;2321;42.704;23.384;2022-09-21T06:03:04;2.53;;;2.33;;
4616;SDS011;2321;42.704;23.384;2022-09-21T06:05:49;3.37;;;2.77;;
4616;SDS011;2321;42.704;23.384;2022-09-21T06:08:16;3.80;;;2.20;;
4616;SDS011;2321;42.704;23.384;2022-09-21T06:10:43;1.87;;;1.87;;
4616;SDS011;2321;42.704;23.384;2022-09-21T06:13:10;2.43;;;2.33;;
4616;SDS011;2321;42.704;23.384;2022-09-21T06:15:37;2.80;;;2.70;;
4616;SDS011;2321;42.704;23.384;2022-09-21T06:18:04;1.80;;;1.70;;
4616;SDS011;2321;42.704;23.384;2022-09-21T06:20:31;3.63;;;3.33;;
4616;SDS011;2321;42.704;23.384;2022-09-21T06:23:01;2.37;;;2.27;;
4616;SDS011;2321;42.704;23.384;2022-09-21T06:25:28;4.00;;;2.80;;
4616;SDS011;2321;42.704;23.384;2022-09-21T06:28:00;5.03;;;4.40;;
4616;SDS011;2321;42.704;23.384;2022-09-21T06:30:28;6.37;;;3.97;;
4616;SDS011;2321;42.704;23.384;2022-09-21T06:32:57;12.10;;;2.80;;
4616;SDS011;2321;42.704;23.384;2022-09-21T06:35:25;5.47;;;4.10;;
4616;SDS011;2321;42.704;23.384;2022-09-21T06:37:56;8.50;;;2.80;;
4616;SDS011;2321;42.704;23.384;2022-09-21T06:40:25;3.17;;;1.80;;
4616;SDS011;2321;42.704;23.384;2022-09-21T06:42:54;7.60;;;2.70;;
4616;SDS011;2321;42.704;23.384;2022-09-21T06:45:22;2.60;;;2.40;;
4616;SDS011;2321;42.704;23.384;2022-09-21T06:47:49;3.10;;;3.00;;
4616;SDS011;2321;42.704;23.384;2022-09-21T06:50:16;3.10;;;3.00;;
4616;SDS011;2321;42.704;23.384;2022-09-21T06:52:43;3.23;;;3.03;;
4616;SDS011;2321;42.704;23.384;2022-09-21T06:55:10;3.10;;;2.90;;
4616;SDS011;2321;42.704;23.384;2022-09-21T06:57:39;2.83;;;2.73;;
4616;SDS011;2321;42.704;23.384;2022-09-21T07:00:07;2.47;;;2.37;;
4616;SDS011;2321;42.704;23.384;2022-09-21T07:02:35;2.93;;;2.60;;
4616;SDS011;2321;42.704;23.384;2022-09-21T07:05:02;6.67;;;2.50;;
4616;SDS011;2321;42.704;23.384;2022-09-21T07:07:30;3.00;;;2.73;;
4616;SDS011;2321;42.704;23.384;2022-09-21T07:09:57;3.00;;;2.80;;
4616;SDS011;2321;42.704;23.384;2022-09-21T07:12:26;2.77;;;2.40;;
4616;SDS011;2321;42.704;23.384;2022-09-21T07:14:55;2.00;;;1.47;;
4616;SDS011;2321;42.704;23.384;2022-09-21T07:17:21;2.50;;;2.10;;
4616;SDS011;2321;42.704;23.384;2022-09-21T07:19:48;2.73;;;2.13;;
4616;SDS011;2321;42.704;23.384;2022-09-21T07:22:15;2.00;;;1.90;;
4616;SDS011;2321;42.704;23.384;2022-09-21T07:24:42;4.00;;;2.10;;
4616;SDS011;2321;42.704;23.384;2022-09-21T07:27:09;1.80;;;1.70;;
4616;SDS011;2321;42.704;23.384;2022-09-21T07:29:36;2.00;;;1.90;;
4616;SDS011;2321;42.704;23.384;2022-09-21T07:32:04;1.90;;;1.80;;
4616;SDS011;2321;42.704;23.384;2022-09-21T07:34:33;3.93;;;2.33;;
4616;SDS011;2321;42.704;23.384;2022-09-21T07:37:01;2.40;;;2.20;;
4616;SDS011;2321;42.704;23.384;2022-09-21T07:39:28;4.20;;;1.77;;
4616;SDS011;2321;42.704;23.384;2022-09-21T07:41:55;2.03;;;1.93;;
4616;SDS011;2321;42.704;23.384;2022-09-21T07:44:23;2.30;;;2.10;;
4616;SDS011;2321;42.704;23.384;2022-09-21T07:46:50;1.63;;;1.57;;
4616;SDS011;2321;42.704;23.384;2022-09-21T07:49:19;15.53;;;1.70;;
4616;SDS011;2321;42.704;23.384;2022-09-21T07:51:45;1.60;;;1.53;;
4616;SDS011;2321;42.704;23.384;2022-09-21T07:54:12;2.13;;;2.13;;
4616;SDS011;2321;42.704;23.384;2022-09-21T07:56:40;10.10;;;2.37;;
4616;SDS011;2321;42.704;23.384;2022-09-21T07:59:27;11.27;;;5.40;;
4616;SDS011;2321;42.704;23.384;2022-09-21T08:01:57;2.03;;;1.93;;
4616;SDS011;2321;42.704;23.384;2022-09-21T08:04:25;1.90;;;1.80;;
4616;SDS011;2321;42.704;23.384;2022-09-21T08:06:52;7.43;;;3.40;;
4616;SDS011;2321;42.704;23.384;2022-09-21T08:09:19;3.77;;;2.37;;
4616;SDS011;2321;42.704;23.384;2022-09-21T08:11:46;5.13;;;2.73;;
4616;SDS011;2321;42.704;23.384;2022-09-21T08:14:13;6.83;;;2.23;;
4616;SDS011;2321;42.704;23.384;2022-09-21T08:16:43;2.00;;;1.90;;
4616;SDS011;2321;42.704;23.384;2022-09-21T08:19:11;2.40;;;2.00;;
4616;SDS011;2321;42.704;23.384;2022-09-21T08:21:39;2.37;;;2.13;;
4616;SDS011;2321;42.704;23.384;2022-09-21T08:24:07;1.90;;;1.90;;
4616;SDS011;2321;42.704;23.384;2022-09-21T08:26:34;2.60;;;1.93;;
4616;SDS011;2321;42.704;23.384;2022-09-21T08:29:02;1.73;;;1.63;;
4616;SDS011;2321;42.704;23.384;2022-09-21T08:31:29;50.03;;;3.20;;
4616;SDS011;2321;42.704;23.384;2022-09-21T08:33:56;1.27;;;1.27;;
4616;SDS011;2321;42.704;23.384;2022-09-21T08:36:23;2.13;;;1.93;;
4616;SDS011;2321;42.704;23.384;2022-09-21T08:38:52;2.40;;;2.20;;
4616;SDS011;2321;42.704;23.384;2022-09-21T08:41:21;1.43;;;1.43;;
4616;SDS011;2321;42.704;23.384;2022-09-21T08:43:51;4.13;;;1.50;;
4616;SDS011;2321;42.704;23.384;2022-09-21T08:46:21;1.87;;;1.77;;
4616;SDS011;2321;42.704;23.384;2022-09-21T08:48:53;1.77;;;1.67;;
4616;SDS011;2321;42.704;23.384;2022-09-21T08:51:25;1.53;;;1.43;;
4616;SDS011;2321;42.704;23.384;2022-09-21T08:53:57;1.10;;;1.10;;
4616;SDS011;2321;42.704;23.384;2022-09-21T08:56:29;1.60;;;1.60;;
4616;SDS011;2321;42.704;23.384;2022-09-21T08:58:56;1.43;;;1.43;;
4616;SDS011;2321;42.704;23.384;2022-09-21T09:01:35;2.17;;;2.07;;
4616;SDS011;2321;42.704;23.384;2022-09-21T09:04:26;1.70;;;1.60;;
4616;SDS011;2321;42.704;23.384;2022-09-21T09:07:05;1.40;;;1.40;;
4616;SDS011;2321;42.704;23.384;2022-09-21T09:09:59;4.33;;;1.50;;
4616;SDS011;2321;42.704;23.384;2022-09-21T09:12:43;5.60;;;1.30;;
4616;SDS011;2321;42.704;23.384;2022-09-21T09:15:24;1.40;;;1.40;;
4616;SDS011;2321;42.704;23.384;2022-09-21T09:18:03;1.30;;;1.30;;
4616;SDS011;2321;42.704;23.384;2022-09-21T09:20:37;7.50;;;1.27;;
4616;SDS011;2321;42.704;23.384;2022-09-21T09:23:08;1.40;;;1.40;;
4616;SDS011;2321;42.704;23.384;2022-09-21T09:25:42;1.00;;;1.00;;
4616;SDS011;2321;42.704;23.384;2022-09-21T09:28:19;0.70;;;0.70;;
4616;SDS011;2321;42.704;23.384;2022-09-21T09:30:55;4.30;;;1.30;;
4616;SDS011;2321;42.704;23.384;2022-09-21T09:33:26;1.17;;;1.17;;
4616;SDS011;2321;42.704;23.384;2022-09-21T09:35:59;1.17;;;1.17;;
4616;SDS011;2321;42.704;23.384;2022-09-21T09:38:31;1.70;;;1.60;;
4616;SDS011;2321;42.704;23.384;2022-09-21T09:41:14;0.90;;;0.90;;
4616;SDS011;2321;42.704;23.384;2022-09-21T09:43:57;1.87;;;1.87;;
4616;SDS011;2321;42.704;23.384;2022-09-21T09:46:40;1.30;;;1.20;;
4616;SDS011;2321;42.704;23.384;2022-09-21T09:49:21;0.90;;;0.90;;
4616;SDS011;2321;42.704;23.384;2022-09-21T09:51:57;3.63;;;1.40;;
4616;SDS011;2321;42.704;23.384;2022-09-21T09:54:26;1.47;;;1.47;;
4616;SDS011;2321;42.704;23.384;2022-09-21T09:57:00;0.90;;;0.90;;
4616;SDS011;2321;42.704;23.384;2022-09-21T09:59:28;1.23;;;1.13;;
4616;SDS011;2321;42.704;23.384;2022-09-21T10:02:01;1.10;;;1.10;;
4616;SDS011;2321;42.704;23.384;2022-09-21T10:04:31;1.20;;;1.20;;
4616;SDS011;2321;42.704;23.384;2022-09-21T10:06:58;7.23;;;1.73;;
4616;SDS011;2321;42.704;23.384;2022-09-21T10:09:26;7.30;;;1.90;;
4616;SDS011;2321;42.704;23.384;2022-09-21T10:11:55;1.40;;;1.30;;
4616;SDS011;2321;42.704;23.384;2022-09-21T10:14:26;0.90;;;0.90;;
4616;SDS011;2321;42.704;23.384;2022-09-21T10:16:57;1.73;;;1.50;;
4616;SDS011;2321;42.704;23.384;2022-09-21T10:19:29;0.90;;;0.90;;
4616;SDS011;2321;42.704;23.384;2022-09-21T10:21:56;1.13;;;1.00;;
4616;SDS011;2321;42.704;23.384;2022-09-21T10:24:25;1.23;;;1.23;;
4616;SDS011;2321;42.704;23.384;2022-09-21T10:26:55;1.40;;;1.30;;
4616;SDS011;2321;42.704;23.384;2022-09-21T10:29:32;1.07;;;1.03;;
4616;SDS011;2321;42.704;23.384;2022-09-21T10:32:15;1.00;;;1.00;;
4616;SDS011;2321;42.704;23.384;2022-09-21T10:34:59;1.60;;;1.50;;
4616;SDS011;2321;42.704;23.384;2022-09-21T10:37:42;1.13;;;1.13;;
4616;SDS011;2321;42.704;23.384;2022-09-21T10:40:23;0.90;;;0.90;;
4616;SDS011;2321;42.704;23.384;2022-09-21T10:42:53;0.80;;;0.80;;
4616;SDS011;2321;42.704;23.384;2022-09-21T10:45:24;0.90;;;0.90;;
4616;SDS011;2321;42.704;23.384;2022-09-21T10:47:54;22.73;;;1.67;;
4616;SDS011;2321;42.704;23.384;2022-09-21T10:50:24;1.73;;;1.10;;
4616;SDS011;2321;42.704;23.384;2022-09-21T10:52:56;0.90;;;0.90;;
4616;SDS011;2321;42.704;23.384;2022-09-21T10:55:26;1.20;;;1.10;;
4616;SDS011;2321;42.704;23.384;2022-09-21T10:57:54;0.93;;;0.93;;
4616;SDS011;2321;42.704;23.384;2022-09-21T11:00:31;1.00;;;1.00;;
4616;SDS011;2321;42.704;23.384;2022-09-21T11:03:02;1.70;;;1.60;;
4616;SDS011;2321;42.704;23.384;2022-09-21T11:05:53;0.90;;;0.90;;
4616;SDS011;2321;42.704;23.384;2022-09-21T11:08:23;2.73;;;1.73;;
4616;SDS011;2321;42.704;23.384;2022-09-21T11:11:00;1.03;;;1.03;;
4616;SDS011;2321;42.704;23.384;2022-09-21T11:13:32;0.97;;;0.97;;
4616;SDS011;2321;42.704;23.384;2022-09-21T11:16:08;1.13;;;1.03;;
4616;SDS011;2321;42.704;23.384;2022-09-21T11:18:42;0.77;;;0.77;;
4616;SDS011;2321;42.704;23.384;2022-09-21T11:21:17;0.80;;;0.80;;
4616;SDS011;2321;42.704;23.384;2022-09-21T11:23:51;1.00;;;1.00;;
4616;SDS011;2321;42.704;23.384;2022-09-21T11:26:28;0.97;;;0.97;;
4616;SDS011;2321;42.704;23.384;2022-09-21T11:29:02;1.10;;;1.00;;
4616;SDS011;2321;42.704;23.384;2022-09-21T11:31:47;1.57;;;1.20;;
4616;SDS011;2321;42.704;23.384;2022-09-21T11:34:31;3.07;;;1.20;;
4616;SDS011;2321;42.704;23.384;2022-09-21T11:37:18;2.40;;;1.10;;
4616;SDS011;2321;42.704;23.384;2022-09-21T11:40:03;1.20;;;1.10;;
4616;SDS011;2321;42.704;23.384;2022-09-21T11:42:45;0.90;;;0.90;;
4616;SDS011;2321;42.704;23.384;2022-09-21T11:45:25;2.40;;;1.43;;
4616;SDS011;2321;42.704;23.384;2022-09-21T11:48:15;0.83;;;0.83;;
4616;SDS011;2321;42.704;23.384;2022-09-21T11:50:54;0.80;;;0.80;;
4616;SDS011;2321;42.704;23.384;2022-09-21T11:56:32;0.73;;;0.73;;
4616;SDS011;2321;42.704;23.384;2022-09-21T11:59:12;0.97;;;0.97;;
4616;SDS011;2321;42.704;23.384;2022-09-21T12:02:14;1.60;;;1.50;;
4616;SDS011;2321;42.704;23.384;2022-09-21T12:04:59;1.00;;;1.00;;
4616;SDS011;2321;42.704;23.384;2022-09-21T12:07:37;0.93;;;0.93;;
4616;SDS011;2321;42.704;23.384;2022-09-21T12:13:18;0.80;;;0.80;;
4616;SDS011;2321;42.704;23.384;2022-09-21T12:15:56;1.60;;;1.30;;
4616;SDS011;2321;42.704;23.384;2022-09-21T12:18:32;2.10;;;1.10;;
4616;SDS011;2321;42.704;23.384;2022-09-21T12:21:09;0.70;;;0.70;;
4616;SDS011;2321;42.704;23.384;2022-09-21T12:23:41;1.23;;;0.70;;
4616;SDS011;2321;42.704;23.384;2022-09-21T12:26:11;0.80;;;0.80;;
4616;SDS011;2321;42.704;23.384;2022-09-21T12:28:43;0.70;;;0.70;;
4616;SDS011;2321;42.704;23.384;2022-09-21T12:31:14;0.90;;;0.90;;
4616;SDS011;2321;42.704;23.384;2022-09-21T12:33:46;0.80;;;0.80;;
4616;SDS011;2321;42.704;23.384;2022-09-21T12:36:19;0.80;;;0.80;;
4616;SDS011;2321;42.704;23.384;2022-09-21T12:38:52;0.80;;;0.80;;
4616;SDS011;2321;42.704;23.384;2022-09-21T12:41:27;1.20;;;1.20;;
4616;SDS011;2321;42.704;23.384;2022-09-21T12:44:03;0.90;;;0.90;;
4616;SDS011;2321;42.704;23.384;2022-09-21T12:46:39;0.60;;;0.60;;
4616;SDS011;2321;42.704;23.384;2022-09-21T12:49:13;0.90;;;0.90;;
4616;SDS011;2321;42.704;23.384;2022-09-21T12:51:47;3.60;;;0.90;;
4616;SDS011;2321;42.704;23.384;2022-09-21T12:54:20;0.70;;;0.70;;
4616;SDS011;2321;42.704;23.384;2022-09-21T12:56:57;0.87;;;0.87;;
4616;SDS011;2321;42.704;23.384;2022-09-21T12:59:30;0.90;;;0.90;;
4616;SDS011;2321;42.704;23.384;2022-09-21T13:02:04;0.90;;;0.90;;
4616;SDS011;2321;42.704;23.384;2022-09-21T13:04:49;0.80;;;0.80;;
4616;SDS011;2321;42.704;23.384;2022-09-21T13:07:30;1.00;;;1.00;;
4616;SDS011;2321;42.704;23.384;2022-09-21T13:10:33;0.70;;;0.70;;
4616;SDS011;2321;42.704;23.384;2022-09-21T13:13:17;0.90;;;0.90;;
4616;SDS011;2321;42.704;23.384;2022-09-21T13:15:49;0.80;;;0.80;;
4616;SDS011;2321;42.704;23.384;2022-09-21T13:18:17;0.80;;;0.80;;
4616;SDS011;2321;42.704;23.384;2022-09-21T13:20:49;0.97;;;0.97;;
4616;SDS011;2321;42.704;23.384;2022-09-21T13:23:25;0.70;;;0.70;;
4616;SDS011;2321;42.704;23.384;2022-09-21T13:25:59;0.87;;;0.87;;
4616;SDS011;2321;42.704;23.384;2022-09-21T13:34:31;0.73;;;0.70;;
4616;SDS011;2321;42.704;23.384;2022-09-21T13:37:13;0.60;;;0.60;;
4616;SDS011;2321;42.704;23.384;2022-09-21T13:40:28;0.70;;;0.70;;
4616;SDS011;2321;42.704;23.384;2022-09-21T13:43:17;0.70;;;0.70;;
4616;SDS011;2321;42.704;23.384;2022-09-21T13:45:54;0.60;;;0.60;;
4616;SDS011;2321;42.704;23.384;2022-09-21T13:48:23;1.37;;;1.10;;
4616;SDS011;2321;42.704;23.384;2022-09-21T13:50:57;0.70;;;0.70;;
4616;SDS011;2321;42.704;23.384;2022-09-21T13:53:29;3.23;;;1.30;;
4616;SDS011;2321;42.704;23.384;2022-09-21T13:56:00;0.70;;;0.70;;
4616;SDS011;2321;42.704;23.384;2022-09-21T13:58:39;7.50;;;1.47;;
4616;SDS011;2321;42.704;23.384;2022-09-21T14:01:11;8.70;;;1.50;;
4616;SDS011;2321;42.704;23.384;2022-09-21T14:03:42;36.80;;;2.47;;
4616;SDS011;2321;42.704;23.384;2022-09-21T14:06:13;3.90;;;1.50;;
4616;SDS011;2321;42.704;23.384;2022-09-21T14:08:48;1.33;;;0.93;;
4616;SDS011;2321;42.704;23.384;2022-09-21T14:11:20;1.20;;;1.20;;
4616;SDS011;2321;42.704;23.384;2022-09-21T14:14:03;2.03;;;1.50;;
4616;SDS011;2321;42.704;23.384;2022-09-21T14:16:50;2.30;;;1.43;;
4616;SDS011;2321;42.704;23.384;2022-09-21T14:22:31;1.80;;;1.50;;
4616;SDS011;2321;42.704;23.384;2022-09-21T14:25:25;2.30;;;1.60;;
4616;SDS011;2321;42.704;23.384;2022-09-21T14:27:57;1.30;;;1.30;;
4616;SDS011;2321;42.704;23.384;2022-09-21T14:30:29;6.30;;;1.30;;
4616;SDS011;2321;42.704;23.384;2022-09-21T14:33:11;1.43;;;1.43;;
4616;SDS011;2321;42.704;23.384;2022-09-21T14:35:46;2.20;;;1.40;;
4616;SDS011;2321;42.704;23.384;2022-09-21T14:38:16;1.07;;;1.07;;
4616;SDS011;2321;42.704;23.384;2022-09-21T14:40:46;1.00;;;1.00;;
4616;SDS011;2321;42.704;23.384;2022-09-21T14:43:16;1.47;;;1.27;;
4616;SDS011;2321;42.704;23.384;2022-09-21T14:45:53;1.43;;;1.40;;
4616;SDS011;2321;42.704;23.384;2022-09-21T14:48:43;1.63;;;1.53;;
4616;SDS011;2321;42.704;23.384;2022-09-21T14:51:20;0.80;;;0.80;;
4616;SDS011;2321;42.704;23.384;2022-09-21T14:53:56;0.80;;;0.80;;
4616;SDS011;2321;42.704;23.384;2022-09-21T14:56:38;1.00;;;1.00;;
4616;SDS011;2321;42.704;23.384;2022-09-21T14:59:22;1.20;;;1.10;;
4616;SDS011;2321;42.704;23.384;2022-09-21T15:02:02;0.93;;;0.93;;
4616;SDS011;2321;42.704;23.384;2022-09-21T15:04:44;1.30;;;1.30;;
4616;SDS011;2321;42.704;23.384;2022-09-21T15:07:24;1.50;;;1.40;;
4616;SDS011;2321;42.704;23.384;2022-09-21T15:10:18;1.27;;;1.27;;
4616;SDS011;2321;42.704;23.384;2022-09-21T15:13:07;4.87;;;1.60;;
4616;SDS011;2321;42.704;23.384;2022-09-21T15:15:46;3.93;;;1.77;;
4616;SDS011;2321;42.704;23.384;2022-09-21T15:18:26;1.60;;;1.50;;
4616;SDS011;2321;42.704;23.384;2022-09-21T15:20:55;2.37;;;1.30;;
4616;SDS011;2321;42.704;23.384;2022-09-21T15:23:26;1.20;;;1.20;;
4616;SDS011;2321;42.704;23.384;2022-09-21T15:25:55;1.70;;;1.60;;
4616;SDS011;2321;42.704;23.384;2022-09-21T15:28:27;0.80;;;0.80;;
4616;SDS011;2321;42.704;23.384;2022-09-21T15:31:00;0.80;;;0.80;;
4616;SDS011;2321;42.704;23.384;2022-09-21T15:33:29;0.97;;;0.97;;
4616;SDS011;2321;42.704;23.384;2022-09-21T15:35:59;1.03;;;1.03;;
4616;SDS011;2321;42.704;23.384;2022-09-21T15:38:27;0.90;;;0.90;;
4616;SDS011;2321;42.704;23.384;2022-09-21T15:40:55;0.90;;;0.90;;
4616;SDS011;2321;42.704;23.384;2022-09-21T15:43:22;1.30;;;1.30;;
4616;SDS011;2321;42.704;23.384;2022-09-21T15:45:50;1.03;;;1.03;;
4616;SDS011;2321;42.704;23.384;2022-09-21T15:48:20;1.17;;;1.17;;
4616;SDS011;2321;42.704;23.384;2022-09-21T15:50:49;7.60;;;1.10;;
4616;SDS011;2321;42.704;23.384;2022-09-21T15:53:23;1.10;;;1.10;;